createdAt,value
2019-02-23T00:04:28.173Z,50.23
2019-02-23T00:09:20.063Z,48.73
2019-02-23T00:14:09.943Z,46.83
2019-02-23T00:23:13.274Z,45.07
2019-02-23T00:28:03.220Z,41.00
2019-02-23T00:32:53.074Z,44.33
2019-02-23T00:37:43.013Z,35.97
2019-02-23T00:42:32.873Z,36.27
2019-02-23T00:47:22.801Z,36.93
2019-02-23T00:52:12.571Z,35.60
2019-02-23T00:57:02.433Z,31.50
2019-02-23T01:01:52.272Z,30.37
2019-02-23T01:06:42.137Z,30.20
2019-02-23T01:11:31.988Z,31.23
2019-02-23T01:16:21.832Z,29.30
2019-02-23T01:21:11.688Z,26.60
2019-02-23T01:26:01.544Z,29.83
2019-02-23T01:30:51.388Z,30.27
2019-02-23T01:35:41.240Z,31.33
2019-02-23T01:40:31.206Z,26.00
2019-02-23T01:45:21.135Z,23.93
2019-02-23T01:50:11.100Z,29.47
2019-02-23T01:55:01.017Z,27.37
2019-02-23T01:59:50.857Z,26.97
2019-02-23T02:04:40.711Z,26.43
2019-02-23T02:09:33.940Z,25.90
2019-02-23T02:14:24.428Z,28.93
2019-02-23T02:19:14.256Z,32.13
2019-02-23T02:24:04.148Z,30.00
2019-02-23T02:28:54.003Z,25.53
2019-02-23T02:34:13.463Z,27.90
2019-02-23T02:39:07.124Z,30.37
2019-02-23T02:43:56.970Z,28.87
2019-02-23T02:48:46.820Z,27.70
2019-02-23T02:53:36.672Z,30.23
2019-02-23T02:58:26.520Z,31.50
2019-02-23T03:03:16.380Z,32.30
2019-02-23T03:08:06.238Z,30.27
2019-02-23T03:12:56.047Z,32.03
2019-02-23T03:17:46.011Z,31.57
2019-02-23T03:22:35.860Z,35.27
2019-02-23T03:27:25.714Z,33.27
2019-02-23T03:32:15.568Z,36.70
2019-02-23T03:37:05.404Z,33.60
2019-02-23T03:41:55.654Z,33.20
2019-02-23T03:46:45.525Z,33.00
2019-02-23T03:51:35.354Z,34.03
2019-02-23T03:56:25.205Z,34.73
2019-02-23T04:01:15.039Z,36.67
2019-02-23T04:06:04.903Z,40.00
2019-02-23T04:10:54.750Z,31.87
2019-02-23T04:15:44.608Z,35.13
2019-02-23T04:20:34.424Z,37.77
2019-02-23T04:25:24.303Z,37.90
2019-02-23T04:30:14.204Z,35.93
2019-02-23T04:35:04.120Z,39.93
2019-02-23T04:39:53.975Z,35.97
2019-02-23T04:44:43.816Z,38.50
2019-02-23T04:49:33.677Z,38.50
2019-02-23T04:54:23.512Z,41.77
2019-02-23T04:59:13.347Z,40.73
2019-02-23T05:04:03.188Z,42.27
2019-02-23T05:08:53.023Z,38.97
2019-02-23T05:13:42.973Z,37.50
2019-02-23T05:18:32.810Z,40.37
2019-02-23T05:23:22.817Z,36.10
2019-02-23T05:28:12.655Z,39.90
2019-02-23T05:33:02.521Z,37.80
2019-02-23T05:37:52.457Z,37.40
2019-02-23T05:42:42.305Z,36.93
2019-02-23T05:47:32.123Z,35.23
2019-02-23T05:52:21.967Z,35.07
2019-02-23T05:57:11.807Z,33.93
2019-02-23T06:02:01.664Z,31.17
2019-02-23T06:06:51.531Z,31.07
2019-02-23T06:11:41.384Z,37.10
2019-02-23T06:16:31.234Z,30.80
2019-02-23T06:21:21.097Z,30.27
2019-02-23T06:26:10.969Z,32.20
2019-02-23T06:31:00.818Z,34.17
2019-02-23T06:35:50.691Z,33.77
2019-02-23T06:40:40.703Z,32.57
2019-02-23T06:45:30.642Z,31.67
2019-02-23T06:50:20.479Z,30.60
2019-02-23T06:55:10.316Z,30.30
2019-02-23T07:00:00.141Z,31.93
2019-02-23T07:04:52.889Z,34.07
2019-02-23T07:09:42.752Z,33.40
2019-02-23T07:14:32.605Z,35.30
2019-02-23T07:19:22.461Z,32.40
2019-02-23T07:24:12.338Z,34.93
2019-02-23T07:29:02.180Z,36.63
2019-02-23T07:33:52.052Z,37.60
2019-02-23T07:38:41.919Z,31.17
2019-02-23T07:43:31.764Z,31.87
2019-02-23T07:48:21.627Z,31.17
2019-02-23T07:53:11.487Z,30.47
2019-02-23T07:58:01.358Z,30.33
2019-02-23T08:02:51.226Z,30.23
2019-02-23T08:07:41.125Z,30.13
2019-02-23T08:12:30.968Z,28.53
2019-02-23T08:17:20.921Z,28.57
2019-02-23T08:22:10.817Z,30.67
2019-02-23T08:27:00.735Z,29.67
2019-02-23T08:31:50.608Z,27.20
2019-02-23T08:36:40.453Z,27.10
2019-02-23T08:41:30.302Z,33.00
2019-02-23T08:46:20.173Z,29.97
2019-02-23T08:51:10.136Z,28.50
2019-02-23T08:55:59.969Z,28.63
2019-02-23T09:00:49.813Z,30.73
2019-02-23T09:05:40.031Z,30.13
2019-02-23T09:10:29.990Z,28.57
2019-02-23T09:15:22.289Z,27.97
2019-02-23T09:20:12.822Z,25.60
2019-02-23T09:25:05.224Z,28.07
2019-02-23T09:29:55.065Z,25.57
2019-02-23T09:34:45.009Z,28.83
2019-02-23T09:39:34.862Z,22.73
2019-02-23T09:44:24.694Z,23.23
2019-02-23T09:49:14.555Z,22.13
2019-02-23T09:54:04.529Z,22.30
2019-02-23T09:58:54.406Z,21.70
2019-02-23T10:03:44.255Z,24.43
2019-02-23T10:08:35.438Z,21.60
2019-02-23T10:13:25.309Z,21.07
2019-02-23T10:21:39.816Z,21.23
2019-02-23T10:26:33.731Z,19.87
2019-02-23T10:31:27.708Z,19.32
2019-02-23T10:36:22.171Z,16.52
2019-02-23T10:41:16.141Z,16.02
2019-02-23T10:46:10.183Z,15.10
2019-02-23T10:51:04.163Z,14.85
2019-02-23T10:55:58.039Z,15.05
2019-02-23T11:00:51.871Z,15.35
2019-02-23T11:05:45.813Z,12.03
2019-02-23T11:10:39.795Z,10.82
2019-02-23T11:15:33.787Z,11.65
2019-02-23T11:20:28.416Z,12.47
2019-02-23T11:25:24.248Z,13.50
2019-02-23T11:30:18.194Z,16.27
2019-02-23T11:35:16.998Z,10.58
2019-02-23T11:40:11.241Z,11.48
2019-02-23T11:45:06.921Z,10.15
2019-02-23T11:50:00.887Z,10.48
2019-02-23T11:54:54.741Z,12.98
2019-02-23T11:59:48.698Z,10.35
2019-02-23T12:04:42.611Z,10.78
2019-02-23T12:09:36.470Z,10.30
2019-02-23T12:14:30.341Z,10.43
2019-02-23T12:19:24.473Z,10.18
2019-02-23T12:24:18.510Z,10.18
2019-02-23T12:29:12.369Z,11.28
2019-02-23T12:34:06.339Z,7.97
2019-02-23T12:39:00.183Z,10.13
2019-02-23T12:43:54.064Z,11.50
2019-02-23T12:48:47.934Z,9.68
2019-02-23T12:53:41.785Z,9.98
2019-02-23T12:58:35.662Z,9.75
2019-02-23T13:03:29.550Z,9.48
2019-02-23T13:08:27.210Z,9.38
2019-02-23T13:13:34.038Z,10.20
2019-02-23T13:18:34.798Z,9.80
2019-02-23T13:23:35.271Z,10.20
2019-02-23T13:28:41.635Z,8.88
2019-02-23T13:34:12.884Z,10.40
2019-02-23T13:39:16.789Z,9.23
2019-02-23T13:44:30.799Z,10.63
2019-02-23T13:49:49.246Z,10.80
2019-02-23T13:55:17.815Z,8.43
2019-02-23T14:00:47.556Z,7.65
2019-02-23T14:05:45.248Z,8.20
2019-02-23T14:10:42.906Z,10.80
2019-02-23T14:15:46.782Z,7.72
2019-02-23T14:20:58.991Z,7.92
2019-02-23T14:26:08.863Z,8.48
2019-02-23T14:31:06.522Z,8.65
2019-02-23T14:36:09.826Z,10.95
2019-02-23T14:41:13.550Z,9.65
2019-02-23T14:46:27.856Z,8.35
2019-02-23T14:51:40.659Z,7.85
2019-02-23T14:56:57.604Z,8.35
2019-02-23T15:02:10.551Z,10.63
2019-02-23T15:07:17.266Z,10.90
2019-02-23T15:12:20.929Z,9.78
2019-02-23T15:17:24.415Z,11.28
2019-02-23T15:22:48.698Z,7.55
2019-02-23T15:27:49.175Z,8.95
2019-02-23T15:33:12.989Z,8.88
2019-02-23T15:38:19.890Z,9.00
2019-02-23T15:43:23.603Z,8.30
2019-02-23T15:48:30.445Z,7.37
2019-02-23T15:53:24.275Z,9.10
2019-02-23T15:58:18.534Z,11.00
2019-02-23T16:03:12.390Z,9.45
2019-02-23T16:08:06.250Z,8.80
2019-02-23T16:13:00.141Z,9.70
2019-02-23T16:17:54.070Z,9.23
2019-02-23T16:22:48.086Z,11.88
2019-02-23T16:27:41.970Z,12.23
2019-02-23T16:32:35.859Z,13.10
2019-02-23T16:37:29.717Z,16.77
2019-02-23T16:42:23.606Z,17.90
2019-02-23T16:47:17.566Z,15.27
2019-02-23T16:52:11.408Z,17.47
2019-02-23T16:57:05.268Z,16.80
2019-02-23T17:01:59.155Z,18.97
2019-02-23T17:06:53.009Z,25.40
2019-02-23T17:11:46.836Z,23.33
2019-02-23T17:16:40.688Z,46.23
2019-02-23T17:21:34.574Z,34.73
2019-02-23T17:26:28.508Z,22.70
2019-02-23T17:31:22.400Z,21.43
2019-02-23T17:36:16.660Z,42.33
2019-02-23T17:42:53.475Z,46.20
2019-02-23T17:46:07.336Z,42.30
2019-02-23T17:49:21.179Z,42.30
2019-02-23T17:52:35.041Z,63.67
2019-02-23T17:55:49.148Z,45.07
2019-02-23T17:59:03.133Z,31.70
2019-02-23T18:02:16.966Z,28.17
2019-02-23T18:05:30.936Z,31.57
2019-02-23T18:08:44.788Z,26.33
2019-02-23T18:11:58.674Z,25.47
2019-02-23T18:15:12.643Z,23.60
2019-02-23T18:18:26.530Z,26.87
2019-02-23T18:21:40.425Z,22.87
2019-02-23T18:24:54.561Z,22.77
2019-02-23T18:28:08.459Z,24.53
2019-02-23T18:31:22.369Z,26.73
2019-02-23T18:34:36.210Z,23.10
2019-02-23T18:37:50.181Z,25.67
2019-02-23T18:41:04.038Z,25.10
2019-02-23T18:44:21.183Z,23.10
2019-02-23T18:47:35.061Z,19.77
2019-02-23T18:50:54.034Z,20.40
2019-02-23T18:54:10.480Z,21.30
2019-02-23T18:57:24.327Z,20.80
2019-02-23T19:00:38.184Z,17.30
2019-02-23T19:03:52.066Z,18.80
2019-02-23T19:07:06.012Z,18.17
2019-02-23T19:10:19.852Z,18.73
2019-02-23T19:13:33.723Z,21.20
2019-02-23T19:16:47.621Z,20.87
2019-02-23T19:20:02.850Z,19.17
2019-02-23T19:23:16.698Z,22.77
2019-02-23T19:26:38.072Z,23.87
2019-02-23T19:29:46.594Z,21.33
2019-02-23T19:33:00.561Z,17.30
2019-02-23T19:36:14.495Z,20.27
2019-02-23T19:39:28.349Z,20.00
2019-02-23T19:42:42.214Z,20.50
2019-02-23T19:45:56.177Z,22.67
2019-02-23T19:49:10.057Z,23.80
2019-02-23T19:52:24.134Z,26.07
2019-02-23T19:55:37.999Z,22.20
2019-02-23T19:58:51.858Z,24.70
2019-02-23T20:02:05.704Z,25.27
2019-02-23T20:05:19.554Z,28.60
2019-02-23T20:08:33.428Z,30.10
2019-02-23T20:11:47.381Z,27.40
2019-02-23T20:15:01.500Z,22.03
2019-02-23T20:18:15.348Z,20.97
2019-02-23T20:21:29.440Z,23.80
2019-02-23T20:24:43.377Z,21.20
2019-02-23T20:27:57.218Z,22.47
2019-02-23T20:31:11.448Z,20.57
2019-02-23T20:34:25.368Z,24.30
2019-02-23T20:37:39.215Z,22.20
2019-02-23T20:40:53.238Z,23.10
2019-02-23T20:44:07.087Z,28.27
2019-02-23T20:47:21.049Z,23.33
2019-02-23T20:50:34.905Z,26.33
2019-02-23T20:53:48.754Z,24.47
2019-02-23T20:57:05.250Z,23.70
2019-02-23T21:00:19.128Z,27.47
2019-02-23T21:03:32.968Z,24.70
2019-02-23T21:06:48.883Z,24.77
2019-02-23T21:10:08.371Z,21.13
2019-02-23T21:13:22.223Z,21.53
2019-02-23T21:16:36.095Z,24.83
2019-02-23T21:19:50.028Z,23.33
2019-02-23T21:23:04.031Z,22.30
2019-02-23T21:26:18.040Z,21.33
2019-02-23T21:29:31.890Z,23.57
2019-02-23T21:32:45.776Z,24.33
2019-02-23T21:35:59.656Z,25.23
2019-02-23T21:39:13.499Z,24.33
2019-02-23T21:42:27.354Z,23.47
2019-02-23T21:45:41.221Z,23.30
2019-02-23T21:48:55.403Z,23.13
2019-02-23T21:52:09.282Z,20.87
2019-02-23T21:55:23.105Z,24.93
2019-02-23T21:58:36.985Z,23.50
2019-02-23T22:01:50.973Z,24.60
2019-02-23T22:05:11.922Z,23.03
2019-02-23T22:08:21.311Z,25.17
2019-02-23T22:11:35.128Z,25.70
2019-02-23T22:14:48.995Z,28.53
2019-02-23T22:18:02.980Z,23.10
2019-02-23T22:21:16.795Z,21.57
2019-02-23T22:24:30.685Z,25.90
2019-02-23T22:27:44.734Z,28.70
2019-02-23T22:30:58.575Z,36.10
2019-02-23T22:34:12.419Z,30.80
2019-02-23T22:37:26.253Z,27.87
2019-02-23T22:40:40.216Z,26.77
2019-02-23T22:43:54.115Z,24.63
2019-02-23T22:47:07.967Z,22.13
2019-02-23T22:50:21.947Z,23.43
2019-02-23T22:53:35.793Z,24.60
2019-02-23T22:56:49.619Z,24.30
2019-02-23T23:00:07.722Z,25.30
2019-02-23T23:03:22.182Z,22.43
2019-02-23T23:06:36.081Z,20.37
2019-02-23T23:09:50.067Z,24.93
2019-02-23T23:13:04.015Z,21.87
2019-02-23T23:16:17.871Z,25.63
2019-02-23T23:19:31.752Z,24.93
2019-02-23T23:22:45.690Z,26.07
2019-02-23T23:25:59.564Z,24.17
2019-02-23T23:29:13.537Z,25.30
2019-02-23T23:32:27.401Z,23.20
2019-02-23T23:35:41.263Z,22.10
2019-02-23T23:38:55.182Z,26.83
2019-02-23T23:42:09.128Z,23.20
2019-02-23T23:45:23.144Z,22.37
2019-02-23T23:48:37.085Z,22.30
2019-02-23T23:51:51.010Z,24.73
2019-02-23T23:55:05.176Z,22.33
2019-02-23T23:58:19.012Z,21.17
